Briefing drone pour Villars

Rechercher une autre localisation

Conditions de vol :


Nous sommes le : Mardi 29 novembre 2022
Il est 03:33 UTC (04:33 LT)

Lever de soleil : 06:33 UTC (07:33 LT)
Coucher de soleil : 16:28 UTC (17:28 LT)

Météo

L'essentiel des conditions de vol

VIGILANCE MÉTÉO FRANCE - Loire (42)
Pas de vigilances particulieres
CARTE TEMSI
CARTES DES FRONTS
METAR de LFMH
LFMH 290330Z AUTO VRB03KT 9999 BKN041 BKN054 OVC072 05/04 Q1015

Date d'émission: 29/11/2022
Heure d'émission: 03:30 UTC
Vent: Variable 3 KT (6 km/h)
Visibilité horizontale: > 10 km
Plafond :
- Nuages morcelés à 4100ft (1250m)
- Nuages morcelés à 5400ft (1646m)
- Couvert à 7200ft (2195m)
Température: 5 °C
Point de rosée: 4 °C
Humidité: 93%
Pression (QNH): 1015 hPa
TAF de LFMH
LFMH 161901Z 1619/1712 CNL

Conditions prévues :

Heure d'émission : Bulletin éffectué le 16 à 19:00 UTC
Prévision : Valide du 16 a 19:00 UTC au 17 a 12:00 UTC
Nuages : à 0ft (0 m)
WEBCAM POUR VILLARS

Réglementation

Voler en sécurité

CARTES AERONAUTIQUE 1/500.000
CARTE AZBA (Reseau basse altitude)
CARTES VAC (LFMH)
SUP AIP




Chargement des AIP...
NOTAM (VILLARS + Terrain à proximité / FIR )




Chargement des NOTAMS...
CONTACT PREFECTURE 42


Avertissement : Les données mises à disposition sont indicatives. Oxygène Drone ne pourra être tenu responsable de dégâts causés aux biens et aux personnes.